createdAt,value
2022-11-16T00:01:50.289Z,9.08
2022-11-16T00:04:18.011Z,9.09
2022-11-16T00:06:46.505Z,9.15
2022-11-16T00:09:23.262Z,9.18
2022-11-16T00:11:57.226Z,9.11
2022-11-16T00:14:27.930Z,9.07
2022-11-16T00:16:56.108Z,9.02
2022-11-16T00:19:24.679Z,8.98
2022-11-16T00:21:52.686Z,8.95
2022-11-16T00:24:22.376Z,8.93
2022-11-16T00:26:50.570Z,9.00
2022-11-16T00:29:24.048Z,8.99
2022-11-16T00:31:53.737Z,8.99
2022-11-16T00:34:22.800Z,9.01
2022-11-16T00:36:50.974Z,8.98
2022-11-16T00:39:19.787Z,8.98
2022-11-16T00:41:48.020Z,8.97
2022-11-16T00:44:16.359Z,8.91
2022-11-16T00:46:44.772Z,8.95
2022-11-16T00:49:12.161Z,8.99
2022-11-16T00:51:39.923Z,8.96
2022-11-16T00:54:09.307Z,9.00
2022-11-16T00:56:38.105Z,8.96
2022-11-16T00:59:05.856Z,8.90
2022-11-16T01:01:33.699Z,8.92
2022-11-16T01:04:01.285Z,8.95
2022-11-16T01:06:28.752Z,8.91
2022-11-16T01:08:56.420Z,8.95
2022-11-16T01:11:42.595Z,8.94
2022-11-16T01:14:11.096Z,8.93
2022-11-16T01:16:38.433Z,8.81
2022-11-16T01:19:06.372Z,8.89
2022-11-16T01:21:34.695Z,8.88
2022-11-16T01:24:02.333Z,8.88
2022-11-16T01:26:29.753Z,8.86
2022-11-16T01:28:59.692Z,8.90
2022-11-16T01:31:27.963Z,8.94
2022-11-16T01:33:55.489Z,8.96
2022-11-16T01:36:23.327Z,8.86
2022-11-16T01:38:50.815Z,8.90
2022-11-16T01:41:22.153Z,8.96
2022-11-16T01:43:52.730Z,8.98
2022-11-16T01:46:21.488Z,9.04
2022-11-16T01:49:08.395Z,9.08
2022-11-16T01:51:37.046Z,8.98
2022-11-16T01:54:12.511Z,8.92
2022-11-16T01:56:43.862Z,8.89
2022-11-16T01:59:12.840Z,8.88
2022-11-16T02:01:40.805Z,8.89
2022-11-16T02:04:11.357Z,8.91
2022-11-16T02:06:42.376Z,8.91
2022-11-16T02:09:50.768Z,8.96
2022-11-16T02:12:33.354Z,8.99
2022-11-16T02:15:29.495Z,8.99
2022-11-16T02:18:05.685Z,8.99
2022-11-16T02:20:52.313Z,9.02
2022-11-16T02:23:47.056Z,9.02
2022-11-16T02:26:26.719Z,9.02
2022-11-16T02:29:25.330Z,9.02
2022-11-16T02:32:14.474Z,9.05
2022-11-16T02:34:47.410Z,9.08
2022-11-16T02:37:19.231Z,9.02
2022-11-16T02:39:52.799Z,8.97
2022-11-16T02:42:28.676Z,8.95
2022-11-16T02:44:59.681Z,8.96
2022-11-16T02:47:31.930Z,8.87
2022-11-16T02:50:05.380Z,8.92
2022-11-16T02:52:32.810Z,8.96
2022-11-16T02:55:00.488Z,9.00
2022-11-16T02:57:37.012Z,8.97
2022-11-16T03:00:07.687Z,8.99
2022-11-16T03:03:00.920Z,8.95
2022-11-16T03:05:34.899Z,8.93
2022-11-16T03:08:24.962Z,8.93
2022-11-16T03:11:21.868Z,8.91
2022-11-16T03:13:51.106Z,8.93
2022-11-16T03:16:33.668Z,8.89
2022-11-16T03:19:05.695Z,8.88
2022-11-16T03:21:40.086Z,8.88
2022-11-16T03:24:08.784Z,8.91
2022-11-16T03:27:06.141Z,8.97
2022-11-16T03:29:40.978Z,8.99
2022-11-16T03:32:27.444Z,8.99
2022-11-16T03:35:06.725Z,8.99
2022-11-16T03:37:35.726Z,8.99
2022-11-16T03:40:06.317Z,9.03
2022-11-16T03:42:34.867Z,9.07
2022-11-16T03:45:04.188Z,9.01
2022-11-16T03:47:31.602Z,9.03
2022-11-16T03:49:59.337Z,9.04
2022-11-16T03:52:27.010Z,9.02
2022-11-16T03:54:54.695Z,9.09
2022-11-16T03:57:24.107Z,9.10
2022-11-16T03:59:51.786Z,9.12
2022-11-16T04:02:19.289Z,9.11
2022-11-16T04:05:07.259Z,9.10
2022-11-16T04:07:53.611Z,9.14
2022-11-16T04:10:39.963Z,9.11
2022-11-16T04:13:31.339Z,9.09
2022-11-16T04:16:17.701Z,9.09
2022-11-16T04:19:04.084Z,9.05
2022-11-16T04:21:55.698Z,9.11
2022-11-16T04:24:28.477Z,9.04
2022-11-16T04:27:19.207Z,9.02
2022-11-16T04:29:47.495Z,9.01
2022-11-16T04:32:34.433Z,8.99
2022-11-16T04:35:20.655Z,9.00
2022-11-16T04:37:54.789Z,9.05
2022-11-16T04:40:25.439Z,9.03
2022-11-16T04:42:54.882Z,9.05
2022-11-16T04:45:46.762Z,9.04
2022-11-16T04:48:17.108Z,9.01
2022-11-16T04:50:45.564Z,9.02
2022-11-16T04:53:13.477Z,9.02
2022-11-16T04:55:41.510Z,9.04
2022-11-16T04:58:09.234Z,9.05
2022-11-16T05:00:36.670Z,9.07
2022-11-16T05:03:05.400Z,9.05
2022-11-16T05:05:33.312Z,9.08
2022-11-16T05:08:00.772Z,9.08
2022-11-16T05:10:28.678Z,9.02
2022-11-16T05:12:57.414Z,9.03
2022-11-16T05:15:25.089Z,9.05
2022-11-16T05:17:55.779Z,9.05
2022-11-16T05:20:42.414Z,9.09
2022-11-16T05:23:34.972Z,9.75
2022-11-16T05:26:03.443Z,9.75
2022-11-16T05:28:31.087Z,9.07
2022-11-16T05:30:58.613Z,9.07
2022-11-16T05:33:26.876Z,9.08
2022-11-16T05:35:54.370Z,9.04
2022-11-16T05:38:22.002Z,9.05
2022-11-16T05:40:49.906Z,9.06
2022-11-16T05:43:17.804Z,9.11
2022-11-16T05:45:46.333Z,9.14
2022-11-16T05:48:14.286Z,9.05
2022-11-16T05:50:43.210Z,8.98
2022-11-16T05:53:11.306Z,8.99
2022-11-16T05:55:39.373Z,8.96
2022-11-16T05:58:06.828Z,8.96
2022-11-16T06:00:34.757Z,8.93
2022-11-16T06:03:02.602Z,8.94
2022-11-16T06:05:32.481Z,9.02
2022-11-16T06:08:01.871Z,8.98
2022-11-16T06:10:30.776Z,9.00
2022-11-16T06:12:58.392Z,8.97
2022-11-16T06:15:26.186Z,8.96
2022-11-16T06:17:53.565Z,8.96
2022-11-16T06:20:21.177Z,8.97
2022-11-16T06:22:48.934Z,9.00
2022-11-16T06:25:16.593Z,9.03
2022-11-16T06:27:44.084Z,9.05
2022-11-16T06:30:12.358Z,9.10
2022-11-16T06:32:40.206Z,9.12
2022-11-16T06:35:08.778Z,9.06
2022-11-16T06:37:36.879Z,9.04
2022-11-16T06:40:04.784Z,9.10
2022-11-16T06:42:32.779Z,9.04
2022-11-16T06:45:00.867Z,9.05
2022-11-16T06:47:28.381Z,9.08
2022-11-16T06:49:55.859Z,9.08
2022-11-16T06:52:23.734Z,9.11
2022-11-16T06:54:51.255Z,9.12
2022-11-16T06:57:18.738Z,9.18
2022-11-16T06:59:46.605Z,9.21
2022-11-16T07:02:14.096Z,9.28
2022-11-16T07:04:42.023Z,9.25
2022-11-16T07:07:09.732Z,9.24
2022-11-16T07:09:37.367Z,9.28
2022-11-16T07:12:04.923Z,9.27
2022-11-16T07:14:34.062Z,9.33
2022-11-16T07:17:09.185Z,9.43
2022-11-16T07:19:37.437Z,9.46
2022-11-16T07:22:05.520Z,9.51
2022-11-16T07:24:33.522Z,9.53
2022-11-16T07:27:01.262Z,9.61
2022-11-16T07:29:29.854Z,9.67
2022-11-16T07:32:01.618Z,9.66
2022-11-16T07:34:37.394Z,9.65
2022-11-16T07:37:05.492Z,9.68
2022-11-16T07:39:33.456Z,9.71
2022-11-16T07:42:00.907Z,9.72
2022-11-16T07:44:28.731Z,9.76
2022-11-16T07:46:58.571Z,9.78
2022-11-16T07:49:25.991Z,9.81
2022-11-16T07:51:53.838Z,9.84
2022-11-16T07:54:21.570Z,9.86
2022-11-16T07:56:49.633Z,9.85
2022-11-16T07:59:18.311Z,9.91
2022-11-16T08:01:49.566Z,9.81
2022-11-16T08:04:17.687Z,9.86
2022-11-16T08:06:46.896Z,9.84
2022-11-16T08:09:14.646Z,9.79
2022-11-16T08:11:43.268Z,9.90
2022-11-16T08:14:11.940Z,9.97
2022-11-16T08:16:39.405Z,9.96
2022-11-16T08:19:07.489Z,10.06
2022-11-16T08:21:34.894Z,10.03
2022-11-16T08:24:03.010Z,10.08
2022-11-16T08:26:31.833Z,10.07
2022-11-16T08:28:59.566Z,10.11
2022-11-16T08:31:28.770Z,10.14
2022-11-16T08:34:00.278Z,10.14
2022-11-16T08:36:28.071Z,10.17
2022-11-16T08:38:55.488Z,10.27
2022-11-16T08:41:23.646Z,10.31
2022-11-16T08:43:53.215Z,10.39
2022-11-16T08:46:21.544Z,10.42
2022-11-16T08:48:54.616Z,10.50
2022-11-16T08:51:22.043Z,10.56
2022-11-16T08:53:58.694Z,10.63
2022-11-16T08:56:27.467Z,10.63
2022-11-16T08:58:58.625Z,10.58
2022-11-16T09:01:29.104Z,10.64
2022-11-16T09:03:57.310Z,10.71
2022-11-16T09:06:27.367Z,10.77
2022-11-16T09:08:54.923Z,10.80
2022-11-16T09:11:24.250Z,10.84
2022-11-16T09:13:53.497Z,10.79
2022-11-16T09:16:21.742Z,10.82
2022-11-16T09:18:51.238Z,10.82
2022-11-16T09:21:26.683Z,10.88
2022-11-16T09:23:55.945Z,10.93
2022-11-16T09:26:24.908Z,10.95
2022-11-16T09:29:00.093Z,10.96
2022-11-16T09:31:31.067Z,10.99
2022-11-16T09:33:59.092Z,11.02
2022-11-16T09:36:28.582Z,11.02
2022-11-16T09:42:12.786Z,10.97
2022-11-16T09:45:12.502Z,10.97
2022-11-16T09:47:49.888Z,10.96
2022-11-16T09:50:41.079Z,10.96
2022-11-16T09:53:53.184Z,10.95
2022-11-16T09:56:23.872Z,10.95
2022-11-16T09:59:13.561Z,10.89
2022-11-16T10:02:05.818Z,10.90
2022-11-16T10:04:38.417Z,10.89
2022-11-16T10:07:19.656Z,10.86
2022-11-16T10:09:48.045Z,10.82
2022-11-16T10:12:21.230Z,10.85
2022-11-16T10:15:32.074Z,10.82
2022-11-16T10:18:02.410Z,10.81
2022-11-16T10:20:48.373Z,10.79
2022-11-16T10:23:41.977Z,10.75
2022-11-16T10:26:21.636Z,10.82
2022-11-16T10:29:16.919Z,10.83
2022-11-16T10:32:11.726Z,10.84
2022-11-16T10:34:50.716Z,10.90
2022-11-16T10:37:19.557Z,10.96
2022-11-16T10:39:53.259Z,10.94
2022-11-16T10:42:34.234Z,10.92
2022-11-16T10:45:11.270Z,10.94
2022-11-16T10:47:44.728Z,11.01
2022-11-16T10:50:27.523Z,11.01
2022-11-16T10:52:55.228Z,10.94
2022-11-16T10:55:23.678Z,10.97
2022-11-16T10:58:05.629Z,10.99
2022-11-16T11:00:34.997Z,10.97
2022-11-16T11:03:02.552Z,11.03
2022-11-16T11:05:30.681Z,11.08
2022-11-16T11:08:26.150Z,11.19
2022-11-16T11:11:25.363Z,11.25
2022-11-16T11:14:14.647Z,11.32
2022-11-16T11:16:42.169Z,11.37
2022-11-16T11:19:26.471Z,11.44
2022-11-16T11:21:59.101Z,11.46
2022-11-16T11:24:45.376Z,11.43
2022-11-16T11:27:13.362Z,11.45
2022-11-16T11:29:43.156Z,11.47
2022-11-16T11:32:19.457Z,11.47
2022-11-16T11:34:54.023Z,11.49
2022-11-16T11:37:34.807Z,11.44
2022-11-16T11:40:28.596Z,11.45
2022-11-16T11:43:00.857Z,11.48
2022-11-16T11:45:50.492Z,11.45
2022-11-16T11:48:53.290Z,11.46
2022-11-16T11:51:40.088Z,11.42
2022-11-16T11:54:13.820Z,11.42
2022-11-16T11:56:41.520Z,11.45
2022-11-16T11:59:18.658Z,11.48
2022-11-16T12:01:55.146Z,11.55
2022-11-16T12:05:00.153Z,11.58
2022-11-16T12:07:48.645Z,11.58
2022-11-16T12:10:42.301Z,11.52
2022-11-16T12:13:34.726Z,11.44
2022-11-16T12:16:24.074Z,11.50
2022-11-16T12:19:00.366Z,11.40
2022-11-16T12:21:28.035Z,11.48
2022-11-16T12:24:19.896Z,11.50
2022-11-16T12:26:55.185Z,11.56
2022-11-16T12:29:31.327Z,11.62
2022-11-16T12:32:19.191Z,11.63
2022-11-16T12:34:55.463Z,11.65
2022-11-16T12:37:42.894Z,11.65
2022-11-16T12:40:34.237Z,11.69
2022-11-16T12:43:31.278Z,11.70
2022-11-16T12:46:01.755Z,11.72
2022-11-16T12:49:03.661Z,11.71
2022-11-16T12:51:43.228Z,11.71
2022-11-16T12:54:13.619Z,11.72
2022-11-16T12:57:20.919Z,11.73
2022-11-16T13:00:06.198Z,11.72
2022-11-16T13:02:33.630Z,11.66
2022-11-16T13:05:15.736Z,11.58
2022-11-16T13:07:48.146Z,11.59
2022-11-16T13:10:28.014Z,11.59
2022-11-16T13:15:52.730Z,11.57
2022-11-16T13:18:23.023Z,11.56
2022-11-16T13:21:19.080Z,11.60
2022-11-16T13:24:05.083Z,11.59
2022-11-16T13:26:55.860Z,11.54
2022-11-16T13:29:45.772Z,11.57
2022-11-16T13:32:13.487Z,11.55
2022-11-16T13:34:41.446Z,11.55
2022-11-16T13:37:36.604Z,11.52
2022-11-16T13:40:06.902Z,11.48
2022-11-16T13:42:57.465Z,11.49
2022-11-16T13:45:30.159Z,11.46
2022-11-16T13:47:58.650Z,11.47
2022-11-16T13:50:38.048Z,11.48
2022-11-16T13:56:06.205Z,11.46
2022-11-16T13:58:37.514Z,11.46
2022-11-16T14:01:17.056Z,11.45
2022-11-16T14:03:52.599Z,11.44
2022-11-16T14:06:19.949Z,11.41
2022-11-16T14:08:52.955Z,11.41
2022-11-16T14:11:34.549Z,11.37
2022-11-16T14:14:10.342Z,11.33
2022-11-16T14:16:47.887Z,11.30
2022-11-16T14:19:44.411Z,11.30
2022-11-16T14:22:21.012Z,11.27
2022-11-16T14:25:07.332Z,11.27
2022-11-16T14:27:53.780Z,11.27
2022-11-16T14:30:24.751Z,11.22
2022-11-16T14:32:57.382Z,11.22
2022-11-16T14:35:40.568Z,11.19
2022-11-16T14:38:21.709Z,11.18
2022-11-16T14:40:58.933Z,11.17
2022-11-16T14:43:30.304Z,11.11
2022-11-16T14:46:29.816Z,11.07
2022-11-16T14:49:01.348Z,11.07
2022-11-16T14:51:35.709Z,11.08
2022-11-16T14:54:13.169Z,11.11
2022-11-16T14:57:00.457Z,11.05
2022-11-16T14:59:29.651Z,11.04
2022-11-16T15:02:00.390Z,11.08
2022-11-16T15:04:27.910Z,11.08
2022-11-16T15:07:02.710Z,11.01
2022-11-16T15:09:34.502Z,10.98
2022-11-16T15:12:28.556Z,11.00
2022-11-16T15:15:00.918Z,11.03
2022-11-16T15:17:32.979Z,10.98
2022-11-16T15:20:14.222Z,11.02
2022-11-16T15:22:46.526Z,10.98
2022-11-16T15:25:23.187Z,10.95
2022-11-16T15:27:50.744Z,10.88
2022-11-16T15:30:25.010Z,10.87
2022-11-16T15:32:53.655Z,10.81
2022-11-16T15:35:25.319Z,10.77
2022-11-16T15:38:14.562Z,10.75
2022-11-16T15:40:50.448Z,10.73
2022-11-16T15:43:19.184Z,10.78
2022-11-16T15:45:47.521Z,10.81
2022-11-16T15:48:25.605Z,10.81
2022-11-16T15:51:17.801Z,10.72
2022-11-16T15:53:47.596Z,10.71
2022-11-16T15:56:27.916Z,10.75
2022-11-16T15:58:58.328Z,10.79
2022-11-16T16:01:26.545Z,10.81
2022-11-16T16:04:01.612Z,10.77
2022-11-16T16:06:47.505Z,10.79
2022-11-16T16:09:24.558Z,10.74
2022-11-16T16:11:55.020Z,10.74
2022-11-16T16:14:30.569Z,10.72
2022-11-16T16:16:59.871Z,10.77
2022-11-16T16:19:43.204Z,10.80
2022-11-16T16:22:25.462Z,10.77
2022-11-16T16:24:53.689Z,10.80
2022-11-16T16:27:23.622Z,10.81
2022-11-16T16:29:55.737Z,10.82
2022-11-16T16:32:27.440Z,10.82
2022-11-16T16:34:57.061Z,10.84
2022-11-16T16:37:29.328Z,10.82
2022-11-16T16:39:57.465Z,10.83
2022-11-16T16:42:25.816Z,10.82
2022-11-16T16:44:53.751Z,10.83
2022-11-16T16:47:21.246Z,10.81
2022-11-16T16:49:49.125Z,10.87
2022-11-16T16:52:17.028Z,10.86
2022-11-16T16:54:44.599Z,10.85
2022-11-16T16:57:17.319Z,10.88
2022-11-16T16:59:45.834Z,10.88
2022-11-16T17:02:14.040Z,10.86
2022-11-16T17:04:43.956Z,10.86
2022-11-16T17:07:11.472Z,10.89
2022-11-16T17:09:39.228Z,10.89
2022-11-16T17:12:06.906Z,10.92
2022-11-16T17:14:34.372Z,10.93
2022-11-16T17:17:02.289Z,11.00
2022-11-16T17:19:30.045Z,10.99
2022-11-16T17:21:58.272Z,10.95
2022-11-16T17:24:26.006Z,10.97
2022-11-16T17:26:53.523Z,10.94
2022-11-16T17:29:20.948Z,10.93
2022-11-16T17:31:48.933Z,10.92
2022-11-16T17:34:16.368Z,10.89
2022-11-16T17:36:44.567Z,10.88
2022-11-16T17:39:12.461Z,10.88
2022-11-16T17:41:39.900Z,10.86
2022-11-16T17:44:07.510Z,10.83
2022-11-16T17:46:35.686Z,10.83
2022-11-16T17:49:03.236Z,10.83
2022-11-16T17:51:30.836Z,10.76
2022-11-16T17:53:58.825Z,10.74
2022-11-16T17:56:27.819Z,10.75
2022-11-16T17:58:56.335Z,10.71
2022-11-16T18:01:25.417Z,10.71
2022-11-16T18:03:53.155Z,10.66
2022-11-16T18:06:22.520Z,10.59
2022-11-16T18:08:49.983Z,10.59
2022-11-16T18:11:23.904Z,10.55
2022-11-16T18:13:59.589Z,10.51
2022-11-16T18:16:30.083Z,10.50
2022-11-16T18:19:02.493Z,10.52
2022-11-16T18:21:31.332Z,10.47
2022-11-16T18:23:59.904Z,10.39
2022-11-16T18:26:27.381Z,10.38
2022-11-16T18:28:55.106Z,10.34
2022-11-16T18:31:24.543Z,10.36
2022-11-16T18:33:52.293Z,10.40
2022-11-16T18:36:20.967Z,10.38
2022-11-16T18:38:48.672Z,10.36
2022-11-16T18:41:22.652Z,10.34
2022-11-16T18:43:55.568Z,10.32
2022-11-16T18:46:25.723Z,10.33
2022-11-16T18:48:53.504Z,10.33
2022-11-16T18:51:22.534Z,10.35
2022-11-16T18:53:50.304Z,10.36
2022-11-16T18:56:18.919Z,10.32
2022-11-16T18:58:51.449Z,10.32
2022-11-16T19:01:25.209Z,10.32
2022-11-16T19:03:53.763Z,10.32
2022-11-16T19:06:22.738Z,10.33
2022-11-16T19:08:56.493Z,10.33
2022-11-16T19:11:24.418Z,10.26
2022-11-16T19:13:57.563Z,10.22
2022-11-16T19:16:25.535Z,10.26
2022-11-16T19:18:53.113Z,10.27
2022-11-16T19:21:22.046Z,10.27
2022-11-16T19:23:52.442Z,10.28
2022-11-16T19:26:22.294Z,10.25
2022-11-16T19:28:50.997Z,10.23
2022-11-16T19:31:24.851Z,10.26
2022-11-16T19:34:00.590Z,10.29
2022-11-16T19:36:29.470Z,10.23
2022-11-16T19:38:57.794Z,10.20
2022-11-16T19:41:27.062Z,10.18
2022-11-16T19:43:59.861Z,10.20
2022-11-16T19:46:30.468Z,10.21
2022-11-16T19:48:58.866Z,10.20
2022-11-16T19:51:28.460Z,10.18
2022-11-16T19:53:56.890Z,10.18
2022-11-16T19:56:24.734Z,10.17
2022-11-16T19:58:52.596Z,10.20
2022-11-16T20:01:23.701Z,10.21
2022-11-16T20:03:56.364Z,10.21
2022-11-16T20:06:30.291Z,10.13
2022-11-16T20:09:08.377Z,10.12
2022-11-16T20:11:37.546Z,10.14
2022-11-16T20:14:07.949Z,10.09
2022-11-16T20:16:39.377Z,10.04
2022-11-16T20:19:08.831Z,10.03
2022-11-16T20:21:39.075Z,10.01
2022-11-16T20:24:08.988Z,10.01
2022-11-16T20:26:40.417Z,10.02
2022-11-16T20:29:11.364Z,9.98
2022-11-16T20:31:42.487Z,9.97
2022-11-16T20:34:16.281Z,9.98
2022-11-16T20:36:46.234Z,9.99
2022-11-16T20:39:15.628Z,9.97
2022-11-16T20:41:44.063Z,9.94
2022-11-16T20:44:16.485Z,9.93
2022-11-16T20:46:45.272Z,9.95
2022-11-16T20:49:13.121Z,9.91
2022-11-16T20:51:40.827Z,9.89
2022-11-16T20:54:08.655Z,9.82
2022-11-16T20:56:36.081Z,9.76
2022-11-16T20:59:03.560Z,9.79
2022-11-16T21:01:34.190Z,9.81
2022-11-16T21:04:04.139Z,9.83
2022-11-16T21:06:32.959Z,9.79
2022-11-16T21:09:01.044Z,9.79
2022-11-16T21:11:30.772Z,9.75
2022-11-16T21:14:16.986Z,9.76
2022-11-16T21:16:45.131Z,9.74
2022-11-16T21:19:13.299Z,9.80
2022-11-16T21:21:41.052Z,9.72
2022-11-16T21:24:09.585Z,9.70
2022-11-16T21:26:37.721Z,9.67
2022-11-16T21:29:05.431Z,9.69
2022-11-16T21:31:36.640Z,9.66
2022-11-16T21:34:05.893Z,9.64
2022-11-16T21:36:33.862Z,9.64
2022-11-16T21:39:01.378Z,9.60
2022-11-16T21:41:29.130Z,9.50
2022-11-16T21:43:56.623Z,9.33
2022-11-16T21:46:25.896Z,9.33
2022-11-16T21:48:56.477Z,9.26
2022-11-16T21:51:26.403Z,9.27
2022-11-16T21:53:54.602Z,9.29
2022-11-16T21:56:26.288Z,9.33
2022-11-16T21:58:54.602Z,9.35
2022-11-16T22:01:23.371Z,9.33
2022-11-16T22:04:11.388Z,9.29
2022-11-16T22:06:57.974Z,9.26
2022-11-16T22:09:25.682Z,9.26
2022-11-16T22:11:53.173Z,9.26
2022-11-16T22:14:20.533Z,9.26
2022-11-16T22:16:48.236Z,9.22
2022-11-16T22:19:15.637Z,9.18
2022-11-16T22:21:43.098Z,9.15
2022-11-16T22:24:10.770Z,9.17
2022-11-16T22:26:39.894Z,9.22
2022-11-16T22:29:07.290Z,9.17
2022-11-16T22:31:36.135Z,9.19
2022-11-16T22:34:03.530Z,9.10
2022-11-16T22:36:30.917Z,9.11
2022-11-16T22:38:58.596Z,9.13
2022-11-16T22:41:25.981Z,9.14
2022-11-16T22:43:53.433Z,9.14
2022-11-16T22:46:21.129Z,9.12
2022-11-16T22:48:48.554Z,9.15
2022-11-16T22:51:22.090Z,9.16
2022-11-16T22:53:58.102Z,9.13
2022-11-16T22:56:26.405Z,9.13
2022-11-16T22:58:54.715Z,9.09
2022-11-16T23:01:22.383Z,9.09
2022-11-16T23:03:50.526Z,9.09
2022-11-16T23:06:18.490Z,9.08
2022-11-16T23:08:45.935Z,9.06
2022-11-16T23:11:34.582Z,9.03
2022-11-16T23:14:21.975Z,9.05
2022-11-16T23:16:49.995Z,9.07
2022-11-16T23:19:38.285Z,8.97
2022-11-16T23:22:25.847Z,8.98
2022-11-16T23:25:12.004Z,8.98
2022-11-16T23:27:45.422Z,8.97
2022-11-16T23:30:13.601Z,8.95
2022-11-16T23:32:41.929Z,8.93
2022-11-16T23:35:10.111Z,8.95
2022-11-16T23:37:50.698Z,8.97
2022-11-16T23:40:18.246Z,8.98
2022-11-16T23:43:04.688Z,8.94
2022-11-16T23:45:32.081Z,8.92
2022-11-16T23:47:59.760Z,8.93
2022-11-16T23:50:27.190Z,8.84
2022-11-16T23:52:54.600Z,8.83
2022-11-16T23:55:23.180Z,8.84
2022-11-16T23:57:50.969Z,8.84
